sensor_id;sensor_type;location;lat;lon;timestamp;temperature;humidity
3876;DHT22;1953;51.222;6.624;2022-12-18T00:02:06;-2.00;1.00
3876;DHT22;1953;51.222;6.624;2022-12-18T00:08:55;-2.10;1.00
3876;DHT22;1953;51.222;6.624;2022-12-18T00:13:37;-2.20;1.00
3876;DHT22;1953;51.222;6.624;2022-12-18T00:18:20;-2.20;1.00
3876;DHT22;1953;51.222;6.624;2022-12-18T00:23:02;-2.20;1.00
3876;DHT22;1953;51.222;6.624;2022-12-18T00:27:46;-2.20;1.00
3876;DHT22;1953;51.222;6.624;2022-12-18T00:32:28;-2.20;1.00
3876;DHT22;1953;51.222;6.624;2022-12-18T00:37:11;-2.20;1.00
3876;DHT22;1953;51.222;6.624;2022-12-18T00:41:53;-2.20;1.00
3876;DHT22;1953;51.222;6.624;2022-12-18T00:46:55;-2.20;1.00
3876;DHT22;1953;51.222;6.624;2022-12-18T00:51:37;-2.30;1.00
3876;DHT22;1953;51.222;6.624;2022-12-18T00:56:19;-2.30;1.00
3876;DHT22;1953;51.222;6.624;2022-12-18T01:01:04;-2.30;1.00
3876;DHT22;1953;51.222;6.624;2022-12-18T01:05:47;-2.30;1.00
3876;DHT22;1953;51.222;6.624;2022-12-18T01:10:30;-2.30;1.00
3876;DHT22;1953;51.222;6.624;2022-12-18T01:15:13;-2.30;1.00
3876;DHT22;1953;51.222;6.624;2022-12-18T01:19:56;-2.30;1.00
3876;DHT22;1953;51.222;6.624;2022-12-18T01:24:39;-2.30;1.00
3876;DHT22;1953;51.222;6.624;2022-12-18T01:29:22;-2.30;1.00
3876;DHT22;1953;51.222;6.624;2022-12-18T01:34:05;-2.30;1.00
3876;DHT22;1953;51.222;6.624;2022-12-18T01:38:47;-2.40;1.00
3876;DHT22;1953;51.222;6.624;2022-12-18T01:43:50;-2.40;1.00
3876;DHT22;1953;51.222;6.624;2022-12-18T01:48:32;-2.40;1.00
3876;DHT22;1953;51.222;6.624;2022-12-18T01:53:17;-2.50;1.00
3876;DHT22;1953;51.222;6.624;2022-12-18T01:58:01;-2.50;1.00
3876;DHT22;1953;51.222;6.624;2022-12-18T02:02:46;-2.50;1.00
3876;DHT22;1953;51.222;6.624;2022-12-18T02:07:35;-2.50;1.00
3876;DHT22;1953;51.222;6.624;2022-12-18T02:12:22;-2.50;1.00
3876;DHT22;1953;51.222;6.624;2022-12-18T02:17:07;-2.50;1.00
3876;DHT22;1953;51.222;6.624;2022-12-18T02:22:03;-2.50;1.00
3876;DHT22;1953;51.222;6.624;2022-12-18T02:26:50;-2.50;1.00
3876;DHT22;1953;51.222;6.624;2022-12-18T02:31:38;-2.60;1.00
3876;DHT22;1953;51.222;6.624;2022-12-18T02:36:23;-2.60;1.00
3876;DHT22;1953;51.222;6.624;2022-12-18T02:41:06;-2.50;1.00
3876;DHT22;1953;51.222;6.624;2022-12-18T02:45:54;-2.50;1.00
3876;DHT22;1953;51.222;6.624;2022-12-18T02:50:43;-2.60;1.00
3876;DHT22;1953;51.222;6.624;2022-12-18T02:55:36;-2.60;1.00
3876;DHT22;1953;51.222;6.624;2022-12-18T03:00:28;-2.60;1.00
3876;DHT22;1953;51.222;6.624;2022-12-18T03:05:17;-2.60;1.00
3876;DHT22;1953;51.222;6.624;2022-12-18T03:10:02;-2.60;1.00
3876;DHT22;1953;51.222;6.624;2022-12-18T03:14:45;-2.60;1.00
3876;DHT22;1953;51.222;6.624;2022-12-18T03:19:32;-2.60;1.00
3876;DHT22;1953;51.222;6.624;2022-12-18T03:24:17;-2.60;1.00
3876;DHT22;1953;51.222;6.624;2022-12-18T03:29:02;-2.50;1.00
3876;DHT22;1953;51.222;6.624;2022-12-18T03:33:47;-2.50;1.00
3876;DHT22;1953;51.222;6.624;2022-12-18T03:38:33;-2.50;1.00
3876;DHT22;1953;51.222;6.624;2022-12-18T03:43:20;-2.50;1.00
3876;DHT22;1953;51.222;6.624;2022-12-18T03:48:13;-2.60;1.00
3876;DHT22;1953;51.222;6.624;2022-12-18T03:53:02;-2.50;1.00
3876;DHT22;1953;51.222;6.624;2022-12-18T03:57:49;-2.50;1.00
3876;DHT22;1953;51.222;6.624;2022-12-18T04:02:35;-2.50;1.00
3876;DHT22;1953;51.222;6.624;2022-12-18T04:07:19;-2.50;1.00
3876;DHT22;1953;51.222;6.624;2022-12-18T04:12:02;-2.50;1.00
3876;DHT22;1953;51.222;6.624;2022-12-18T04:16:44;-2.50;1.00
3876;DHT22;1953;51.222;6.624;2022-12-18T04:21:28;-2.50;1.00
3876;DHT22;1953;51.222;6.624;2022-12-18T04:26:11;-2.50;1.00
3876;DHT22;1953;51.222;6.624;2022-12-18T04:30:53;-2.50;1.00
3876;DHT22;1953;51.222;6.624;2022-12-18T04:35:36;-2.40;1.00
3876;DHT22;1953;51.222;6.624;2022-12-18T04:40:19;-2.40;1.00
3876;DHT22;1953;51.222;6.624;2022-12-18T04:45:02;-2.40;1.00
3876;DHT22;1953;51.222;6.624;2022-12-18T04:49:45;-2.40;1.00
3876;DHT22;1953;51.222;6.624;2022-12-18T04:54:27;-2.40;1.00
3876;DHT22;1953;51.222;6.624;2022-12-18T04:59:11;-2.40;1.00
3876;DHT22;1953;51.222;6.624;2022-12-18T05:03:54;-2.40;1.00
3876;DHT22;1953;51.222;6.624;2022-12-18T05:08:36;-2.30;1.00
3876;DHT22;1953;51.222;6.624;2022-12-18T05:13:19;-2.30;1.00
3876;DHT22;1953;51.222;6.624;2022-12-18T05:18:03;-2.30;1.00
3876;DHT22;1953;51.222;6.624;2022-12-18T05:22:46;-2.20;1.00
3876;DHT22;1953;51.222;6.624;2022-12-18T05:27:28;-2.20;1.00
3876;DHT22;1953;51.222;6.624;2022-12-18T05:32:11;-2.20;1.00
3876;DHT22;1953;51.222;6.624;2022-12-18T05:36:54;-2.10;1.00
3876;DHT22;1953;51.222;6.624;2022-12-18T05:41:37;-2.10;1.00
3876;DHT22;1953;51.222;6.624;2022-12-18T05:46:19;-2.10;1.00
3876;DHT22;1953;51.222;6.624;2022-12-18T05:51:06;-2.10;1.00
3876;DHT22;1953;51.222;6.624;2022-12-18T05:55:50;-2.10;1.00
3876;DHT22;1953;51.222;6.624;2022-12-18T06:00:34;-2.10;1.00
3876;DHT22;1953;51.222;6.624;2022-12-18T06:05:16;-2.10;1.00
3876;DHT22;1953;51.222;6.624;2022-12-18T06:09:59;-2.10;1.00
3876;DHT22;1953;51.222;6.624;2022-12-18T06:14:43;-2.10;1.00
3876;DHT22;1953;51.222;6.624;2022-12-18T06:19:25;-2.10;1.00
3876;DHT22;1953;51.222;6.624;2022-12-18T06:24:08;-2.10;1.00
3876;DHT22;1953;51.222;6.624;2022-12-18T06:28:50;-2.10;1.00
3876;DHT22;1953;51.222;6.624;2022-12-18T06:33:35;-2.10;1.00
3876;DHT22;1953;51.222;6.624;2022-12-18T06:38:17;-2.10;1.00
3876;DHT22;1953;51.222;6.624;2022-12-18T06:43:00;-1.90;1.00
3876;DHT22;1953;51.222;6.624;2022-12-18T06:47:42;-1.90;1.00
3876;DHT22;1953;51.222;6.624;2022-12-18T06:52:26;-1.90;1.00
3876;DHT22;1953;51.222;6.624;2022-12-18T06:57:09;-1.90;1.00
3876;DHT22;1953;51.222;6.624;2022-12-18T07:01:51;-1.90;1.00
3876;DHT22;1953;51.222;6.624;2022-12-18T07:06:33;-1.90;1.00
3876;DHT22;1953;51.222;6.624;2022-12-18T07:11:18;-1.80;1.00
3876;DHT22;1953;51.222;6.624;2022-12-18T07:16:05;-1.70;1.00
3876;DHT22;1953;51.222;6.624;2022-12-18T07:20:48;-1.70;1.00
3876;DHT22;1953;51.222;6.624;2022-12-18T07:25:33;-1.80;1.00
3876;DHT22;1953;51.222;6.624;2022-12-18T07:30:17;-1.70;1.00
3876;DHT22;1953;51.222;6.624;2022-12-18T07:34:59;-1.70;1.00
3876;DHT22;1953;51.222;6.624;2022-12-18T07:39:41;-1.70;1.00
3876;DHT22;1953;51.222;6.624;2022-12-18T07:44:24;-1.80;1.00
3876;DHT22;1953;51.222;6.624;2022-12-18T07:49:08;-1.70;1.00
3876;DHT22;1953;51.222;6.624;2022-12-18T07:53:50;-1.80;1.00
3876;DHT22;1953;51.222;6.624;2022-12-18T07:58:34;-1.70;1.00
3876;DHT22;1953;51.222;6.624;2022-12-18T08:03:16;-1.70;1.00
3876;DHT22;1953;51.222;6.624;2022-12-18T08:08:00;-1.70;1.00
3876;DHT22;1953;51.222;6.624;2022-12-18T08:12:42;-1.70;1.00
3876;DHT22;1953;51.222;6.624;2022-12-18T08:17:25;-1.70;1.00
3876;DHT22;1953;51.222;6.624;2022-12-18T08:22:07;-1.60;1.00
3876;DHT22;1953;51.222;6.624;2022-12-18T08:26:51;-1.60;1.00
3876;DHT22;1953;51.222;6.624;2022-12-18T08:31:33;-1.50;1.00
3876;DHT22;1953;51.222;6.624;2022-12-18T08:36:16;-1.50;1.00
3876;DHT22;1953;51.222;6.624;2022-12-18T08:40:59;-1.30;1.00
3876;DHT22;1953;51.222;6.624;2022-12-18T08:45:43;-1.30;1.00
3876;DHT22;1953;51.222;6.624;2022-12-18T08:50:26;-1.30;1.00
3876;DHT22;1953;51.222;6.624;2022-12-18T08:55:09;-1.10;1.00
3876;DHT22;1953;51.222;6.624;2022-12-18T08:59:51;-1.10;1.00
3876;DHT22;1953;51.222;6.624;2022-12-18T09:04:35;-1.00;1.00
3876;DHT22;1953;51.222;6.624;2022-12-18T09:09:17;-0.90;1.00
3876;DHT22;1953;51.222;6.624;2022-12-18T09:14:00;-0.80;1.00
3876;DHT22;1953;51.222;6.624;2022-12-18T09:18:43;-0.60;1.00
3876;DHT22;1953;51.222;6.624;2022-12-18T09:23:28;-0.70;1.00
3876;DHT22;1953;51.222;6.624;2022-12-18T09:28:12;-0.60;1.00
3876;DHT22;1953;51.222;6.624;2022-12-18T09:32:55;-0.40;1.00
3876;DHT22;1953;51.222;6.624;2022-12-18T09:37:38;-0.30;1.00
3876;DHT22;1953;51.222;6.624;2022-12-18T09:42:22;-0.30;1.00
3876;DHT22;1953;51.222;6.624;2022-12-18T09:47:09;-0.20;1.00
3876;DHT22;1953;51.222;6.624;2022-12-18T09:51:56;-0.10;1.00
3876;DHT22;1953;51.222;6.624;2022-12-18T09:56:41;0.00;1.00
3876;DHT22;1953;51.222;6.624;2022-12-18T10:01:27;0.00;1.00
3876;DHT22;1953;51.222;6.624;2022-12-18T10:06:15;0.10;1.00
3876;DHT22;1953;51.222;6.624;2022-12-18T10:11:09;0.20;1.00
3876;DHT22;1953;51.222;6.624;2022-12-18T10:16:11;0.30;1.00
3876;DHT22;1953;51.222;6.624;2022-12-18T10:21:00;0.50;1.00
3876;DHT22;1953;51.222;6.624;2022-12-18T10:25:52;0.50;1.00
3876;DHT22;1953;51.222;6.624;2022-12-18T10:30:36;0.50;1.00
3876;DHT22;1953;51.222;6.624;2022-12-18T10:35:22;0.50;1.00
3876;DHT22;1953;51.222;6.624;2022-12-18T10:40:10;0.60;1.00
3876;DHT22;1953;51.222;6.624;2022-12-18T10:45:01;0.70;1.00
3876;DHT22;1953;51.222;6.624;2022-12-18T10:49:49;0.80;1.00
3876;DHT22;1953;51.222;6.624;2022-12-18T10:54:33;1.00;1.00
3876;DHT22;1953;51.222;6.624;2022-12-18T10:59:18;1.00;1.00
3876;DHT22;1953;51.222;6.624;2022-12-18T11:04:04;1.10;1.00
3876;DHT22;1953;51.222;6.624;2022-12-18T11:08:58;1.20;1.00
3876;DHT22;1953;51.222;6.624;2022-12-18T11:13:41;1.30;1.00
3876;DHT22;1953;51.222;6.624;2022-12-18T11:18:33;1.40;1.00
3876;DHT22;1953;51.222;6.624;2022-12-18T11:23:16;1.40;1.00
3876;DHT22;1953;51.222;6.624;2022-12-18T11:28:00;1.40;1.00
3876;DHT22;1953;51.222;6.624;2022-12-18T11:32:43;1.40;1.00
3876;DHT22;1953;51.222;6.624;2022-12-18T11:37:29;1.50;1.00
3876;DHT22;1953;51.222;6.624;2022-12-18T11:42:17;1.50;1.00
3876;DHT22;1953;51.222;6.624;2022-12-18T11:47:08;1.50;1.00
3876;DHT22;1953;51.222;6.624;2022-12-18T11:51:58;1.40;1.00
3876;DHT22;1953;51.222;6.624;2022-12-18T11:56:46;0.20;1.00
3876;DHT22;1953;51.222;6.624;2022-12-18T12:01:39;1.50;1.00
3876;DHT22;1953;51.222;6.624;2022-12-18T12:10:02;1.60;1.00
3876;DHT22;1953;51.222;6.624;2022-12-18T12:14:54;1.60;1.00
3876;DHT22;1953;51.222;6.624;2022-12-18T12:19:44;1.50;1.00
3876;DHT22;1953;51.222;6.624;2022-12-18T12:24:37;1.60;1.00
3876;DHT22;1953;51.222;6.624;2022-12-18T12:29:35;1.60;1.00
3876;DHT22;1953;51.222;6.624;2022-12-18T12:34:22;1.60;1.00
3876;DHT22;1953;51.222;6.624;2022-12-18T12:39:10;1.70;1.00
3876;DHT22;1953;51.222;6.624;2022-12-18T12:43:56;1.60;1.00
3876;DHT22;1953;51.222;6.624;2022-12-18T12:48:44;1.50;1.00
3876;DHT22;1953;51.222;6.624;2022-12-18T12:53:33;1.60;1.00
3876;DHT22;1953;51.222;6.624;2022-12-18T12:58:24;1.70;1.00
3876;DHT22;1953;51.222;6.624;2022-12-18T13:03:15;1.80;1.00
3876;DHT22;1953;51.222;6.624;2022-12-18T13:08:05;1.70;1.00
3876;DHT22;1953;51.222;6.624;2022-12-18T13:12:55;1.90;1.00
3876;DHT22;1953;51.222;6.624;2022-12-18T13:17:37;1.70;1.00
3876;DHT22;1953;51.222;6.624;2022-12-18T13:22:21;1.70;1.00
3876;DHT22;1953;51.222;6.624;2022-12-18T13:27:51;1.80;1.00
3876;DHT22;1953;51.222;6.624;2022-12-18T13:32:38;1.90;1.00
3876;DHT22;1953;51.222;6.624;2022-12-18T13:37:40;1.90;1.00
3876;DHT22;1953;51.222;6.624;2022-12-18T13:42:39;1.80;1.00
3876;DHT22;1953;51.222;6.624;2022-12-18T13:47:39;1.70;1.00
3876;DHT22;1953;51.222;6.624;2022-12-18T13:52:28;0.50;1.00
3876;DHT22;1953;51.222;6.624;2022-12-18T13:57:26;1.70;1.00
3876;DHT22;1953;51.222;6.624;2022-12-18T14:02:14;1.70;1.00
3876;DHT22;1953;51.222;6.624;2022-12-18T14:07:01;1.70;1.00
3876;DHT22;1953;51.222;6.624;2022-12-18T14:11:48;1.70;1.00
3876;DHT22;1953;51.222;6.624;2022-12-18T14:16:31;1.60;1.00
3876;DHT22;1953;51.222;6.624;2022-12-18T14:21:21;1.60;1.00
3876;DHT22;1953;51.222;6.624;2022-12-18T14:26:21;0.40;1.00
3876;DHT22;1953;51.222;6.624;2022-12-18T14:31:04;1.50;1.00
3876;DHT22;1953;51.222;6.624;2022-12-18T14:35:54;1.40;1.00
3876;DHT22;1953;51.222;6.624;2022-12-18T14:40:38;1.40;1.00
3876;DHT22;1953;51.222;6.624;2022-12-18T14:45:34;1.30;1.00
3876;DHT22;1953;51.222;6.624;2022-12-18T14:50:19;1.30;1.00
3876;DHT22;1953;51.222;6.624;2022-12-18T14:55:01;1.20;1.00
3876;DHT22;1953;51.222;6.624;2022-12-18T14:59:45;1.30;1.00
3876;DHT22;1953;51.222;6.624;2022-12-18T15:04:30;1.20;1.00
3876;DHT22;1953;51.222;6.624;2022-12-18T15:09:22;1.10;1.00
3876;DHT22;1953;51.222;6.624;2022-12-18T15:14:31;1.10;1.00
3876;DHT22;1953;51.222;6.624;2022-12-18T15:19:16;1.00;1.00
3876;DHT22;1953;51.222;6.624;2022-12-18T15:23:58;1.00;1.00
3876;DHT22;1953;51.222;6.624;2022-12-18T15:28:45;0.90;1.00
3876;DHT22;1953;51.222;6.624;2022-12-18T15:33:31;1.00;1.00
3876;DHT22;1953;51.222;6.624;2022-12-18T15:38:15;1.00;1.00
3876;DHT22;1953;51.222;6.624;2022-12-18T15:42:57;1.00;1.00
3876;DHT22;1953;51.222;6.624;2022-12-18T15:47:57;1.00;1.00
3876;DHT22;1953;51.222;6.624;2022-12-18T15:52:42;0.90;1.00
3876;DHT22;1953;51.222;6.624;2022-12-18T15:57:26;0.90;1.00
3876;DHT22;1953;51.222;6.624;2022-12-18T16:02:16;0.80;1.00
3876;DHT22;1953;51.222;6.624;2022-12-18T16:06:59;0.70;1.00
3876;DHT22;1953;51.222;6.624;2022-12-18T16:11:43;0.70;1.00
3876;DHT22;1953;51.222;6.624;2022-12-18T16:16:28;0.60;1.00
3876;DHT22;1953;51.222;6.624;2022-12-18T16:21:11;0.60;1.00
3876;DHT22;1953;51.222;6.624;2022-12-18T16:25:53;0.60;1.00
3876;DHT22;1953;51.222;6.624;2022-12-18T16:30:36;0.50;1.00
3876;DHT22;1953;51.222;6.624;2022-12-18T16:35:22;0.60;1.00
3876;DHT22;1953;51.222;6.624;2022-12-18T16:40:06;0.60;1.00
3876;DHT22;1953;51.222;6.624;2022-12-18T16:44:49;0.50;1.00
3876;DHT22;1953;51.222;6.624;2022-12-18T16:49:32;0.50;1.00
3876;DHT22;1953;51.222;6.624;2022-12-18T16:54:16;0.50;1.00
3876;DHT22;1953;51.222;6.624;2022-12-18T16:59:00;0.60;1.00
3876;DHT22;1953;51.222;6.624;2022-12-18T17:03:42;0.50;1.00
3876;DHT22;1953;51.222;6.624;2022-12-18T17:08:25;0.50;1.00
3876;DHT22;1953;51.222;6.624;2022-12-18T17:13:08;0.40;1.00
3876;DHT22;1953;51.222;6.624;2022-12-18T17:17:51;0.30;1.00
3876;DHT22;1953;51.222;6.624;2022-12-18T17:22:33;0.50;1.00
3876;DHT22;1953;51.222;6.624;2022-12-18T17:27:16;0.50;1.00
3876;DHT22;1953;51.222;6.624;2022-12-18T17:31:59;0.40;1.00
3876;DHT22;1953;51.222;6.624;2022-12-18T17:36:42;0.50;1.00
3876;DHT22;1953;51.222;6.624;2022-12-18T17:41:25;0.50;1.00
3876;DHT22;1953;51.222;6.624;2022-12-18T17:46:08;0.50;1.00
3876;DHT22;1953;51.222;6.624;2022-12-18T17:50:51;0.50;1.00
3876;DHT22;1953;51.222;6.624;2022-12-18T17:55:34;0.40;1.00
3876;DHT22;1953;51.222;6.624;2022-12-18T18:00:17;0.50;1.00
3876;DHT22;1953;51.222;6.624;2022-12-18T18:05:00;0.50;1.00
3876;DHT22;1953;51.222;6.624;2022-12-18T18:09:43;0.50;1.00
3876;DHT22;1953;51.222;6.624;2022-12-18T18:14:26;0.50;1.00
3876;DHT22;1953;51.222;6.624;2022-12-18T18:19:10;0.50;1.00
3876;DHT22;1953;51.222;6.624;2022-12-18T18:23:53;0.50;1.00
3876;DHT22;1953;51.222;6.624;2022-12-18T18:28:37;0.60;1.00
3876;DHT22;1953;51.222;6.624;2022-12-18T18:33:19;0.60;1.00
3876;DHT22;1953;51.222;6.624;2022-12-18T18:38:01;0.60;1.00
3876;DHT22;1953;51.222;6.624;2022-12-18T18:42:44;0.60;1.00
3876;DHT22;1953;51.222;6.624;2022-12-18T18:47:29;0.60;1.00
3876;DHT22;1953;51.222;6.624;2022-12-18T18:52:11;0.60;1.00
3876;DHT22;1953;51.222;6.624;2022-12-18T18:56:54;0.60;1.00
3876;DHT22;1953;51.222;6.624;2022-12-18T19:01:36;0.60;1.00
3876;DHT22;1953;51.222;6.624;2022-12-18T19:06:22;0.60;1.00
3876;DHT22;1953;51.222;6.624;2022-12-18T19:11:07;0.70;1.00
3876;DHT22;1953;51.222;6.624;2022-12-18T19:16:10;0.70;1.00
3876;DHT22;1953;51.222;6.624;2022-12-18T19:20:56;0.70;1.00
3876;DHT22;1953;51.222;6.624;2022-12-18T19:25:40;0.60;1.00
3876;DHT22;1953;51.222;6.624;2022-12-18T19:30:22;0.60;1.00
3876;DHT22;1953;51.222;6.624;2022-12-18T19:35:05;0.70;1.00
3876;DHT22;1953;51.222;6.624;2022-12-18T19:39:48;0.70;1.00
3876;DHT22;1953;51.222;6.624;2022-12-18T19:44:32;0.70;1.00
3876;DHT22;1953;51.222;6.624;2022-12-18T19:49:14;0.60;1.00
3876;DHT22;1953;51.222;6.624;2022-12-18T19:53:58;0.70;1.00
3876;DHT22;1953;51.222;6.624;2022-12-18T19:58:40;0.70;1.00
3876;DHT22;1953;51.222;6.624;2022-12-18T20:03:24;0.80;1.00
3876;DHT22;1953;51.222;6.624;2022-12-18T20:08:06;0.80;1.00
3876;DHT22;1953;51.222;6.624;2022-12-18T20:12:49;0.80;1.00
3876;DHT22;1953;51.222;6.624;2022-12-18T20:17:31;0.80;1.00
3876;DHT22;1953;51.222;6.624;2022-12-18T20:22:15;0.80;1.00
3876;DHT22;1953;51.222;6.624;2022-12-18T20:26:57;0.80;1.00
3876;DHT22;1953;51.222;6.624;2022-12-18T20:31:40;0.80;1.00
3876;DHT22;1953;51.222;6.624;2022-12-18T20:36:22;0.90;1.00
3876;DHT22;1953;51.222;6.624;2022-12-18T20:41:08;0.80;1.00
3876;DHT22;1953;51.222;6.624;2022-12-18T20:45:59;0.80;1.00
3876;DHT22;1953;51.222;6.624;2022-12-18T20:50:42;0.90;1.00
3876;DHT22;1953;51.222;6.624;2022-12-18T20:55:24;1.00;1.00
3876;DHT22;1953;51.222;6.624;2022-12-18T21:00:09;1.00;1.00
3876;DHT22;1953;51.222;6.624;2022-12-18T21:04:52;0.90;1.00
3876;DHT22;1953;51.222;6.624;2022-12-18T21:09:35;0.90;1.00
3876;DHT22;1953;51.222;6.624;2022-12-18T21:14:19;0.90;1.00
3876;DHT22;1953;51.222;6.624;2022-12-18T21:19:03;0.90;1.00
3876;DHT22;1953;51.222;6.624;2022-12-18T21:23:45;1.00;1.00
3876;DHT22;1953;51.222;6.624;2022-12-18T21:28:28;0.90;1.00
3876;DHT22;1953;51.222;6.624;2022-12-18T21:33:10;1.00;1.00
3876;DHT22;1953;51.222;6.624;2022-12-18T21:37:54;1.00;1.00
3876;DHT22;1953;51.222;6.624;2022-12-18T21:42:36;1.00;1.00
3876;DHT22;1953;51.222;6.624;2022-12-18T21:47:37;1.10;1.00
3876;DHT22;1953;51.222;6.624;2022-12-18T21:52:20;1.00;1.00
3876;DHT22;1953;51.222;6.624;2022-12-18T21:57:05;1.00;1.00
3876;DHT22;1953;51.222;6.624;2022-12-18T22:01:49;1.00;1.00
3876;DHT22;1953;51.222;6.624;2022-12-18T22:06:32;1.10;1.00
3876;DHT22;1953;51.222;6.624;2022-12-18T22:11:14;1.10;1.00
3876;DHT22;1953;51.222;6.624;2022-12-18T22:15:58;1.10;1.00
3876;DHT22;1953;51.222;6.624;2022-12-18T22:20:40;1.10;1.00
3876;DHT22;1953;51.222;6.624;2022-12-18T22:25:23;1.20;1.00
3876;DHT22;1953;51.222;6.624;2022-12-18T22:30:07;1.20;1.00
3876;DHT22;1953;51.222;6.624;2022-12-18T22:34:50;1.30;1.00
3876;DHT22;1953;51.222;6.624;2022-12-18T22:39:33;1.30;1.00
3876;DHT22;1953;51.222;6.624;2022-12-18T22:44:15;1.30;1.00
3876;DHT22;1953;51.222;6.624;2022-12-18T22:48:58;1.30;1.00
3876;DHT22;1953;51.222;6.624;2022-12-18T22:53:42;1.30;1.00
3876;DHT22;1953;51.222;6.624;2022-12-18T22:58:24;1.30;1.00
3876;DHT22;1953;51.222;6.624;2022-12-18T23:03:07;1.30;1.00
3876;DHT22;1953;51.222;6.624;2022-12-18T23:07:49;1.40;1.00
3876;DHT22;1953;51.222;6.624;2022-12-18T23:12:33;1.40;1.00
3876;DHT22;1953;51.222;6.624;2022-12-18T23:17:17;1.50;1.00
3876;DHT22;1953;51.222;6.624;2022-12-18T23:22:00;1.40;1.00
3876;DHT22;1953;51.222;6.624;2022-12-18T23:26:42;1.40;1.00
3876;DHT22;1953;51.222;6.624;2022-12-18T23:31:27;1.40;1.00
3876;DHT22;1953;51.222;6.624;2022-12-18T23:36:10;1.40;1.00
3876;DHT22;1953;51.222;6.624;2022-12-18T23:40:53;1.50;1.00
3876;DHT22;1953;51.222;6.624;2022-12-18T23:45:36;1.50;1.00
3876;DHT22;1953;51.222;6.624;2022-12-18T23:50:20;1.50;1.00
3876;DHT22;1953;51.222;6.624;2022-12-18T23:55:03;1.60;1.00
3876;DHT22;1953;51.222;6.624;2022-12-18T23:59:45;1.60;1.00
